createdAt,value
2017-12-30T00:00:42.747Z,986.94
2017-12-30T00:01:42.733Z,986.97
2017-12-30T00:02:42.719Z,986.91
2017-12-30T00:03:42.705Z,986.91
2017-12-30T00:04:42.693Z,986.90
2017-12-30T00:05:42.677Z,986.84
2017-12-30T00:06:42.666Z,986.89
2017-12-30T00:07:42.651Z,986.92
2017-12-30T00:08:42.637Z,986.96
2017-12-30T00:09:42.624Z,986.92
2017-12-30T00:10:42.609Z,986.94
2017-12-30T00:11:42.649Z,986.88
2017-12-30T00:12:42.614Z,986.95
2017-12-30T00:13:42.568Z,986.89
2017-12-30T00:14:42.554Z,987.03
2017-12-30T00:15:42.544Z,986.93
2017-12-30T00:16:42.528Z,986.90
2017-12-30T00:17:42.514Z,986.94
2017-12-30T00:18:42.500Z,986.96
2017-12-30T00:19:42.488Z,986.91
2017-12-30T00:20:42.474Z,986.94
2017-12-30T00:21:42.459Z,986.93
2017-12-30T00:22:42.446Z,986.94
2017-12-30T00:23:42.431Z,986.94
2017-12-30T00:24:42.418Z,986.87
2017-12-30T00:25:42.404Z,986.88
2017-12-30T00:26:42.390Z,986.82
2017-12-30T00:27:42.377Z,986.92
2017-12-30T00:28:42.363Z,986.86
2017-12-30T00:29:42.350Z,986.89
2017-12-30T00:30:42.338Z,986.87
2017-12-30T00:31:42.323Z,986.76
2017-12-30T00:32:42.308Z,986.85
2017-12-30T00:33:42.295Z,986.83
2017-12-30T00:34:42.281Z,986.78
2017-12-30T00:35:42.267Z,986.72
2017-12-30T00:36:42.253Z,986.80
2017-12-30T00:37:42.239Z,986.82
2017-12-30T00:38:42.226Z,986.84
2017-12-30T00:39:42.212Z,986.87
2017-12-30T00:40:42.198Z,986.78
2017-12-30T00:41:42.184Z,986.80
2017-12-30T00:42:42.170Z,986.80
2017-12-30T00:43:42.157Z,986.76
2017-12-30T00:44:42.144Z,986.70
2017-12-30T00:45:42.128Z,986.75
2017-12-30T00:46:42.116Z,986.80
2017-12-30T00:47:42.103Z,986.84
2017-12-30T00:48:42.089Z,986.90
2017-12-30T00:49:42.075Z,986.86
2017-12-30T00:50:42.061Z,986.81
2017-12-30T00:51:42.048Z,986.91
2017-12-30T00:52:42.037Z,986.87
2017-12-30T00:53:42.020Z,986.82
2017-12-30T00:54:42.007Z,986.92
2017-12-30T00:55:41.993Z,986.95
2017-12-30T00:56:41.980Z,987.04
2017-12-30T00:57:41.970Z,987.04
2017-12-30T00:58:41.952Z,987.05
2017-12-30T00:59:41.938Z,987.10
2017-12-30T01:00:41.925Z,987.05
2017-12-30T01:01:41.911Z,987.04
2017-12-30T01:02:41.898Z,987.01
2017-12-30T01:03:41.887Z,987.02
2017-12-30T01:04:41.872Z,987.08
2017-12-30T01:05:41.857Z,986.96
2017-12-30T01:06:41.844Z,987.00
2017-12-30T01:07:41.830Z,987.00
2017-12-30T01:08:41.817Z,987.04
2017-12-30T01:09:41.802Z,987.02
2017-12-30T01:10:41.789Z,987.05
2017-12-30T01:11:41.776Z,986.99
2017-12-30T01:12:41.762Z,987.02
2017-12-30T01:13:41.748Z,986.99
2017-12-30T01:14:41.734Z,987.01
2017-12-30T01:15:41.722Z,986.95
2017-12-30T01:16:41.708Z,986.96
2017-12-30T01:17:41.692Z,987.00
2017-12-30T01:18:41.688Z,986.99
2017-12-30T01:19:41.666Z,986.93
2017-12-30T01:20:41.652Z,986.89
2017-12-30T01:21:41.638Z,986.84
2017-12-30T01:22:41.626Z,986.81
2017-12-30T01:23:41.610Z,986.77
2017-12-30T01:24:41.599Z,986.76
2017-12-30T01:25:41.582Z,986.76
2017-12-30T01:26:41.569Z,986.78
2017-12-30T01:27:41.555Z,986.75
2017-12-30T01:28:41.542Z,986.78
2017-12-30T01:29:41.526Z,986.81
2017-12-30T01:30:41.512Z,986.80
2017-12-30T01:31:41.498Z,986.75
2017-12-30T01:32:41.486Z,986.76
2017-12-30T01:33:41.470Z,986.67
2017-12-30T01:34:41.457Z,986.62
2017-12-30T01:35:41.445Z,986.55
2017-12-30T01:36:41.434Z,986.57
2017-12-30T01:37:41.416Z,986.52
2017-12-30T01:38:41.406Z,986.51
2017-12-30T01:39:41.389Z,986.48
2017-12-30T01:40:41.374Z,986.40
2017-12-30T01:41:41.360Z,986.47
2017-12-30T01:42:41.346Z,986.48
2017-12-30T01:43:41.332Z,986.50
2017-12-30T01:44:41.319Z,986.53
2017-12-30T01:45:41.304Z,986.47
2017-12-30T01:46:41.289Z,986.51
2017-12-30T01:47:41.276Z,986.50
2017-12-30T01:48:41.262Z,986.53
2017-12-30T01:49:41.247Z,986.47
2017-12-30T01:50:41.234Z,986.40
2017-12-30T01:51:41.220Z,986.40
2017-12-30T01:52:41.206Z,986.34
2017-12-30T01:53:41.196Z,986.39
2017-12-30T01:54:41.178Z,986.38
2017-12-30T01:55:41.168Z,986.29
2017-12-30T01:56:41.149Z,986.27
2017-12-30T01:57:41.135Z,986.26
2017-12-30T01:58:41.121Z,986.22
2017-12-30T01:59:41.111Z,986.17
2017-12-30T02:00:41.094Z,986.17
2017-12-30T02:01:41.078Z,986.13
2017-12-30T02:02:41.065Z,986.08
2017-12-30T02:03:41.051Z,986.05
2017-12-30T02:04:41.038Z,985.96
2017-12-30T02:05:41.022Z,985.85
2017-12-30T02:06:41.020Z,985.83
2017-12-30T02:07:40.995Z,985.89
2017-12-30T02:08:40.981Z,985.96
2017-12-30T02:09:40.968Z,985.88
2017-12-30T02:10:40.953Z,985.85
2017-12-30T02:11:40.940Z,985.83
2017-12-30T02:12:40.925Z,985.90
2017-12-30T02:13:40.910Z,985.90
2017-12-30T02:14:40.901Z,985.87
2017-12-30T02:15:40.883Z,985.81
2017-12-30T02:16:40.869Z,985.75
2017-12-30T02:17:40.855Z,985.71
2017-12-30T02:18:40.841Z,985.65
2017-12-30T02:19:40.827Z,985.59
2017-12-30T02:20:40.817Z,985.55
2017-12-30T02:21:40.807Z,985.54
2017-12-30T02:22:40.789Z,985.50
2017-12-30T02:23:40.772Z,985.55
2017-12-30T02:24:40.759Z,985.57
2017-12-30T02:25:40.750Z,985.51
2017-12-30T02:26:40.729Z,985.50
2017-12-30T02:27:40.717Z,985.49
2017-12-30T02:28:40.703Z,985.43
2017-12-30T02:29:40.688Z,985.47
2017-12-30T02:30:40.678Z,985.39
2017-12-30T02:31:40.664Z,985.39
2017-12-30T02:32:40.648Z,985.37
2017-12-30T02:33:40.633Z,985.39
2017-12-30T02:34:40.621Z,985.39
2017-12-30T02:35:40.607Z,985.45
2017-12-30T02:36:40.593Z,985.42
2017-12-30T02:37:40.585Z,985.40
2017-12-30T02:38:40.564Z,985.39
2017-12-30T02:39:40.552Z,985.33
2017-12-30T02:40:40.540Z,985.39
2017-12-30T02:41:40.524Z,985.30
2017-12-30T02:42:40.511Z,985.23
2017-12-30T02:43:40.498Z,985.25
2017-12-30T02:44:40.490Z,985.22
2017-12-30T02:45:40.477Z,985.33
2017-12-30T02:46:40.457Z,985.29
2017-12-30T02:47:40.443Z,985.30
2017-12-30T02:48:40.430Z,985.35
2017-12-30T02:49:40.415Z,985.31
2017-12-30T02:50:40.401Z,985.23
2017-12-30T02:51:40.388Z,985.18
2017-12-30T02:52:40.374Z,985.14
2017-12-30T02:53:40.361Z,985.10
2017-12-30T02:54:40.348Z,985.10
2017-12-30T02:55:40.337Z,985.12
2017-12-30T02:56:40.320Z,985.13
2017-12-30T02:57:40.305Z,985.07
2017-12-30T02:58:40.292Z,985.07
2017-12-30T02:59:40.279Z,985.08
2017-12-30T03:00:40.265Z,985.04
2017-12-30T03:01:40.251Z,985.04
2017-12-30T03:02:40.238Z,984.99
2017-12-30T03:03:40.225Z,984.96
2017-12-30T03:04:40.212Z,985.03
2017-12-30T03:05:40.196Z,985.03
2017-12-30T03:06:40.182Z,984.99
2017-12-30T03:07:40.170Z,984.98
2017-12-30T03:08:40.156Z,984.95
2017-12-30T03:09:40.142Z,984.96
2017-12-30T03:10:40.128Z,984.91
2017-12-30T03:11:40.116Z,984.97
2017-12-30T03:12:40.108Z,984.99
2017-12-30T03:13:40.091Z,984.95
2017-12-30T03:14:40.074Z,984.97
2017-12-30T03:15:40.066Z,985.02
2017-12-30T03:16:40.049Z,984.99
2017-12-30T03:17:40.033Z,985.04
2017-12-30T03:18:40.019Z,984.99
2017-12-30T03:19:40.007Z,985.04
2017-12-30T03:20:39.992Z,985.01
2017-12-30T03:21:39.978Z,984.96
2017-12-30T03:22:39.965Z,984.87
2017-12-30T03:23:39.952Z,984.89
2017-12-30T03:24:39.945Z,984.92
2017-12-30T03:25:39.923Z,984.91
2017-12-30T03:26:39.910Z,984.90
2017-12-30T03:27:39.897Z,984.93
2017-12-30T03:28:39.883Z,984.97
2017-12-30T03:29:39.868Z,984.85
2017-12-30T03:30:39.857Z,984.88
2017-12-30T03:31:39.846Z,984.89
2017-12-30T03:32:39.829Z,984.88
2017-12-30T03:33:39.815Z,984.80
2017-12-30T03:34:39.802Z,984.82
2017-12-30T03:35:39.790Z,984.76
2017-12-30T03:36:39.776Z,984.68
2017-12-30T03:37:39.761Z,984.70
2017-12-30T03:38:39.748Z,984.67
2017-12-30T03:39:39.734Z,984.72
2017-12-30T03:40:39.721Z,984.72
2017-12-30T03:41:39.708Z,984.67
2017-12-30T03:42:39.695Z,984.69
2017-12-30T03:43:39.687Z,984.67
2017-12-30T03:44:39.669Z,984.68
2017-12-30T03:45:39.655Z,984.64
2017-12-30T03:46:39.641Z,984.60
2017-12-30T03:47:39.630Z,984.66
2017-12-30T03:48:39.615Z,984.60
2017-12-30T03:49:39.600Z,984.66
2017-12-30T03:50:39.588Z,984.58
2017-12-30T03:51:39.574Z,984.58
2017-12-30T03:52:39.563Z,984.59
2017-12-30T03:53:39.547Z,984.53
2017-12-30T03:54:39.535Z,984.51
2017-12-30T03:55:39.528Z,984.50
2017-12-30T03:56:39.517Z,984.50
2017-12-30T03:57:39.495Z,984.47
2017-12-30T03:58:39.482Z,984.42
2017-12-30T03:59:39.468Z,984.38
2017-12-30T04:00:39.455Z,984.50
2017-12-30T04:01:39.445Z,984.30
2017-12-30T04:02:39.430Z,984.35
2017-12-30T04:03:39.416Z,984.27
2017-12-30T04:04:39.403Z,984.23
2017-12-30T04:05:39.389Z,984.20
2017-12-30T04:06:39.377Z,984.18
2017-12-30T04:07:39.363Z,984.21
2017-12-30T04:08:39.352Z,984.20
2017-12-30T04:09:39.336Z,984.14
2017-12-30T04:10:39.325Z,984.17
2017-12-30T04:11:39.316Z,984.12
2017-12-30T04:12:39.298Z,984.10
2017-12-30T04:13:39.284Z,984.15
2017-12-30T04:14:39.272Z,984.11
2017-12-30T04:15:39.305Z,984.07
2017-12-30T04:16:39.245Z,984.13
2017-12-30T04:17:39.233Z,984.11
2017-12-30T04:18:39.219Z,984.13
2017-12-30T04:19:39.207Z,984.08
2017-12-30T04:20:39.193Z,984.07
2017-12-30T04:21:39.180Z,984.06
2017-12-30T04:22:39.167Z,984.01
2017-12-30T04:23:39.155Z,984.00
2017-12-30T04:24:39.142Z,983.99
2017-12-30T04:25:39.127Z,983.95
2017-12-30T04:26:39.120Z,983.90
2017-12-30T04:27:39.102Z,983.85
2017-12-30T04:28:39.092Z,983.80
2017-12-30T04:29:39.076Z,983.81
2017-12-30T04:30:39.064Z,983.81
2017-12-30T04:31:39.050Z,983.87
2017-12-30T04:32:39.037Z,983.82
2017-12-30T04:33:39.023Z,983.72
2017-12-30T04:34:39.011Z,983.73
2017-12-30T04:35:39.003Z,983.71
2017-12-30T04:36:39.000Z,983.67
2017-12-30T04:37:38.971Z,983.67
2017-12-30T04:38:38.960Z,983.74
2017-12-30T04:39:38.946Z,983.78
2017-12-30T04:40:38.934Z,983.72
2017-12-30T04:41:38.920Z,983.74
2017-12-30T04:42:38.908Z,983.68
2017-12-30T04:43:38.895Z,983.68
2017-12-30T04:44:38.883Z,983.67
2017-12-30T04:45:38.868Z,983.71
2017-12-30T04:46:38.856Z,983.69
2017-12-30T04:47:38.843Z,983.67
2017-12-30T04:48:38.830Z,983.69
2017-12-30T04:49:38.819Z,983.63
2017-12-30T04:50:38.806Z,983.59
2017-12-30T04:51:38.792Z,983.56
2017-12-30T04:52:38.780Z,983.57
2017-12-30T04:53:38.766Z,983.56
2017-12-30T04:54:38.754Z,983.51
2017-12-30T04:55:38.742Z,983.51
2017-12-30T04:56:38.729Z,983.48
2017-12-30T04:57:38.715Z,983.48
2017-12-30T04:58:38.702Z,983.40
2017-12-30T04:59:38.691Z,983.46
2017-12-30T05:00:38.679Z,983.45
2017-12-30T05:01:38.664Z,983.37
2017-12-30T05:02:38.653Z,983.39
2017-12-30T05:03:38.640Z,983.32
2017-12-30T05:04:38.628Z,983.34
2017-12-30T05:05:38.614Z,983.31
2017-12-30T05:06:38.601Z,983.35
2017-12-30T05:07:38.588Z,983.40
2017-12-30T05:08:38.576Z,983.51
2017-12-30T05:09:38.563Z,983.50
2017-12-30T05:10:38.550Z,983.47
2017-12-30T05:11:38.537Z,983.43
2017-12-30T05:12:38.525Z,983.43
2017-12-30T05:13:38.510Z,983.42
2017-12-30T05:14:38.500Z,983.36
2017-12-30T05:15:38.486Z,983.35
2017-12-30T05:16:38.473Z,983.32
2017-12-30T05:17:38.460Z,983.32
2017-12-30T05:18:38.448Z,983.33
2017-12-30T05:19:38.435Z,983.31
2017-12-30T05:20:38.422Z,983.29
2017-12-30T05:21:38.408Z,983.31
2017-12-30T05:22:38.395Z,983.33
2017-12-30T05:23:38.382Z,983.38
2017-12-30T05:24:38.369Z,983.28
2017-12-30T05:25:38.356Z,983.29
2017-12-30T05:26:38.343Z,983.29
2017-12-30T05:27:38.330Z,983.22
2017-12-30T05:28:38.321Z,983.22
2017-12-30T05:29:38.304Z,983.14
2017-12-30T05:30:38.292Z,983.20
2017-12-30T05:31:38.279Z,983.16
2017-12-30T05:32:38.266Z,983.08
2017-12-30T05:33:38.251Z,983.12
2017-12-30T05:34:38.239Z,982.97
2017-12-30T05:35:38.226Z,982.99
2017-12-30T05:36:38.214Z,982.97
2017-12-30T05:37:38.200Z,982.92
2017-12-30T05:38:38.187Z,982.94
2017-12-30T05:39:38.175Z,982.84
2017-12-30T05:40:38.161Z,982.90
2017-12-30T05:41:38.146Z,982.94
2017-12-30T05:42:38.134Z,983.00
2017-12-30T05:43:38.122Z,983.08
2017-12-30T05:44:38.107Z,983.05
2017-12-30T05:45:38.094Z,983.05
2017-12-30T05:46:38.081Z,983.02
2017-12-30T05:47:38.067Z,983.01
2017-12-30T05:48:38.055Z,982.90
2017-12-30T05:49:38.041Z,982.89
2017-12-30T05:50:38.028Z,982.85
2017-12-30T05:51:38.015Z,982.85
2017-12-30T05:52:38.005Z,982.85
2017-12-30T05:53:37.989Z,982.81
2017-12-30T05:54:37.975Z,982.83
2017-12-30T05:55:37.962Z,982.89
2017-12-30T05:56:37.949Z,982.85
2017-12-30T05:57:37.942Z,982.75
2017-12-30T05:58:37.923Z,982.66
2017-12-30T05:59:37.911Z,982.64
2017-12-30T06:00:37.897Z,982.62
2017-12-30T06:01:37.883Z,982.65
2017-12-30T06:02:37.870Z,982.53
2017-12-30T06:03:37.859Z,982.57
2017-12-30T06:04:37.845Z,982.37
2017-12-30T06:05:37.831Z,982.31
2017-12-30T06:06:37.818Z,982.27
2017-12-30T06:07:37.805Z,982.26
2017-12-30T06:08:37.792Z,982.30
2017-12-30T06:09:37.778Z,982.22
2017-12-30T06:10:37.768Z,982.09
2017-12-30T06:11:37.752Z,982.13
2017-12-30T06:12:37.740Z,982.07
2017-12-30T06:13:37.726Z,982.10
2017-12-30T06:14:37.713Z,982.13
2017-12-30T06:15:37.700Z,982.16
2017-12-30T06:16:37.686Z,982.17
2017-12-30T06:17:37.673Z,982.12
2017-12-30T06:18:37.659Z,982.03
2017-12-30T06:19:37.646Z,981.90
2017-12-30T06:20:37.632Z,981.89
2017-12-30T06:21:37.618Z,981.85
2017-12-30T06:22:37.606Z,981.77
2017-12-30T06:23:37.593Z,981.78
2017-12-30T06:24:37.580Z,981.73
2017-12-30T06:25:37.565Z,981.65
2017-12-30T06:26:37.553Z,981.62
2017-12-30T06:27:37.539Z,981.60
2017-12-30T06:28:37.526Z,981.52
2017-12-30T06:29:37.512Z,981.43
2017-12-30T06:30:37.504Z,981.41
2017-12-30T06:31:37.486Z,981.40
2017-12-30T06:32:37.473Z,981.39
2017-12-30T06:33:37.459Z,981.34
2017-12-30T06:34:37.446Z,981.26
2017-12-30T06:35:37.435Z,981.17
2017-12-30T06:36:37.420Z,981.20
2017-12-30T06:37:37.406Z,981.21
2017-12-30T06:38:37.393Z,981.08
2017-12-30T06:39:37.381Z,981.09
2017-12-30T06:40:37.366Z,981.07
2017-12-30T06:41:37.353Z,981.12
2017-12-30T06:42:37.341Z,981.13
2017-12-30T06:43:37.331Z,981.12
2017-12-30T06:44:37.316Z,981.04
2017-12-30T06:45:37.301Z,981.01
2017-12-30T06:46:37.289Z,981.00
2017-12-30T06:47:37.275Z,980.99
2017-12-30T06:48:37.261Z,980.95
2017-12-30T06:49:37.246Z,980.92
2017-12-30T06:50:37.234Z,980.85
2017-12-30T06:51:37.221Z,980.78
2017-12-30T06:52:37.207Z,980.73
2017-12-30T06:53:37.194Z,980.70
2017-12-30T06:54:37.180Z,980.68
2017-12-30T06:55:37.168Z,980.61
2017-12-30T06:56:37.155Z,980.59
2017-12-30T06:57:37.141Z,980.52
2017-12-30T06:58:37.129Z,980.55
2017-12-30T06:59:37.115Z,980.49
2017-12-30T07:00:37.102Z,980.52
2017-12-30T07:01:37.088Z,980.64
2017-12-30T07:02:37.076Z,980.56
2017-12-30T07:03:37.064Z,980.52
2017-12-30T07:04:37.049Z,980.46
2017-12-30T07:05:37.036Z,980.43
2017-12-30T07:06:37.022Z,980.38
2017-12-30T07:07:37.009Z,980.34
2017-12-30T07:08:36.998Z,980.29
2017-12-30T07:09:36.983Z,980.30
2017-12-30T07:10:36.969Z,980.32
2017-12-30T07:11:36.955Z,980.32
2017-12-30T07:12:36.943Z,980.20
2017-12-30T07:13:36.928Z,980.18
2017-12-30T07:14:36.915Z,980.10
2017-12-30T07:15:36.902Z,980.08
2017-12-30T07:16:36.890Z,979.98
2017-12-30T07:17:36.876Z,979.99
2017-12-30T07:18:36.862Z,979.96
2017-12-30T07:19:36.849Z,979.88
2017-12-30T07:20:36.836Z,979.83
2017-12-30T07:21:36.823Z,979.89
2017-12-30T07:22:36.810Z,979.86
2017-12-30T07:23:36.798Z,979.97
2017-12-30T07:24:36.785Z,979.85
2017-12-30T07:25:36.771Z,979.83
2017-12-30T07:26:36.758Z,979.79
2017-12-30T07:27:36.745Z,979.75
2017-12-30T07:28:36.732Z,979.83
2017-12-30T07:29:36.720Z,979.81
2017-12-30T07:30:36.706Z,979.75
2017-12-30T07:31:36.693Z,979.85
2017-12-30T07:32:36.679Z,979.84
2017-12-30T07:33:36.666Z,979.71
2017-12-30T07:34:36.653Z,979.63
2017-12-30T07:35:36.641Z,979.66
2017-12-30T07:36:36.629Z,979.63
2017-12-30T07:37:36.615Z,979.65
2017-12-30T07:38:36.602Z,979.75
2017-12-30T07:39:36.589Z,979.68
2017-12-30T07:40:36.577Z,979.65
2017-12-30T07:41:36.562Z,979.60
2017-12-30T07:42:36.551Z,979.58
2017-12-30T07:43:36.538Z,979.68
2017-12-30T07:44:36.525Z,979.61
2017-12-30T07:45:36.512Z,979.59
2017-12-30T07:46:36.498Z,979.67
2017-12-30T07:47:36.487Z,979.52
2017-12-30T07:48:36.473Z,979.68
2017-12-30T07:49:36.460Z,979.66
2017-12-30T07:50:36.448Z,979.56
2017-12-30T07:51:36.434Z,979.72
2017-12-30T07:52:36.422Z,979.52
2017-12-30T07:53:36.408Z,979.72
2017-12-30T07:54:36.395Z,979.70
2017-12-30T07:55:36.382Z,979.68
2017-12-30T07:56:36.369Z,979.63
2017-12-30T07:57:36.405Z,979.58
2017-12-30T07:58:36.346Z,979.63
2017-12-30T07:59:36.330Z,979.53
2017-12-30T08:00:36.318Z,979.40
2017-12-30T08:01:36.308Z,979.35
2017-12-30T08:02:36.292Z,979.28
2017-12-30T08:03:36.280Z,979.34
2017-12-30T08:04:36.271Z,979.44
2017-12-30T08:05:36.253Z,979.41
2017-12-30T08:06:36.251Z,979.46
2017-12-30T08:07:36.229Z,979.30
2017-12-30T08:08:36.216Z,979.25
2017-12-30T08:09:36.201Z,979.30
2017-12-30T08:10:36.189Z,979.29
2017-12-30T08:11:36.177Z,979.14
2017-12-30T08:12:36.165Z,979.15
2017-12-30T08:13:36.152Z,979.21
2017-12-30T08:14:36.139Z,979.16
2017-12-30T08:15:36.126Z,979.14
2017-12-30T08:16:36.113Z,979.30
2017-12-30T08:17:36.101Z,979.28
2017-12-30T08:18:36.089Z,979.34
2017-12-30T08:19:36.078Z,979.25
2017-12-30T08:20:36.063Z,979.18
2017-12-30T08:21:36.051Z,979.23
2017-12-30T08:22:36.038Z,979.16
2017-12-30T08:23:36.026Z,979.26
2017-12-30T08:24:36.014Z,979.15
2017-12-30T08:25:35.999Z,979.19
2017-12-30T08:26:35.987Z,979.23
2017-12-30T08:27:35.976Z,979.30
2017-12-30T08:28:35.963Z,979.27
2017-12-30T08:29:35.953Z,979.01
2017-12-30T08:30:35.938Z,979.08
2017-12-30T08:31:35.933Z,978.82
2017-12-30T08:32:35.914Z,979.00
2017-12-30T08:33:35.900Z,978.92
2017-12-30T08:34:35.888Z,979.01
2017-12-30T08:35:35.876Z,979.10
2017-12-30T08:36:35.864Z,979.02
2017-12-30T08:37:35.851Z,979.00
2017-12-30T08:38:35.840Z,979.13
2017-12-30T08:39:35.827Z,979.16
2017-12-30T08:40:35.815Z,979.00
2017-12-30T08:41:35.802Z,979.09
2017-12-30T08:42:35.789Z,979.00
2017-12-30T08:43:35.779Z,978.94
2017-12-30T08:44:35.766Z,978.95
2017-12-30T08:45:35.752Z,978.93
2017-12-30T08:46:35.741Z,978.93
2017-12-30T08:47:35.727Z,978.97
2017-12-30T08:48:35.715Z,979.02
2017-12-30T08:49:35.702Z,979.03
2017-12-30T08:50:35.690Z,978.99
2017-12-30T08:51:35.679Z,978.98
2017-12-30T08:52:35.665Z,979.06
2017-12-30T08:53:35.652Z,979.05
2017-12-30T08:54:35.640Z,978.94
2017-12-30T08:55:35.629Z,978.90
2017-12-30T08:56:35.617Z,978.81
2017-12-30T08:57:35.603Z,978.83
2017-12-30T08:58:35.592Z,978.83
2017-12-30T08:59:35.580Z,978.81
2017-12-30T09:00:35.567Z,978.67
2017-12-30T09:01:35.555Z,978.78
2017-12-30T09:02:35.542Z,978.82
2017-12-30T09:03:35.531Z,978.92
2017-12-30T09:04:35.521Z,978.98
2017-12-30T09:05:35.506Z,979.10
2017-12-30T09:06:35.493Z,979.09
2017-12-30T09:07:35.482Z,978.98
2017-12-30T09:08:35.471Z,979.00
2017-12-30T09:09:35.461Z,979.11
2017-12-30T09:10:35.445Z,979.10
2017-12-30T09:11:35.434Z,979.10
2017-12-30T09:12:35.421Z,979.01
2017-12-30T09:13:35.409Z,978.93
2017-12-30T09:14:35.397Z,978.91
2017-12-30T09:15:35.385Z,978.97
2017-12-30T09:16:35.375Z,979.04
2017-12-30T09:17:35.362Z,979.24
2017-12-30T09:18:35.351Z,979.21
2017-12-30T09:19:35.338Z,979.40
2017-12-30T09:20:35.326Z,979.30
2017-12-30T09:21:35.314Z,979.28
2017-12-30T09:22:35.302Z,979.21
2017-12-30T09:23:35.291Z,979.16
2017-12-30T09:24:35.279Z,979.18
2017-12-30T09:25:35.266Z,979.31
2017-12-30T09:26:35.255Z,979.55
2017-12-30T09:27:35.244Z,979.26
2017-12-30T09:28:35.232Z,979.14
2017-12-30T09:29:35.220Z,979.26
2017-12-30T09:30:35.208Z,979.24
2017-12-30T09:31:35.196Z,979.35
2017-12-30T09:32:35.185Z,979.23
2017-12-30T09:33:35.173Z,979.34
2017-12-30T09:34:35.162Z,979.28
2017-12-30T09:35:35.150Z,979.32
2017-12-30T09:36:35.138Z,979.38
2017-12-30T09:37:35.127Z,979.44
2017-12-30T09:38:35.114Z,979.55
2017-12-30T09:39:35.103Z,979.48
2017-12-30T09:40:35.092Z,979.39
2017-12-30T09:41:35.080Z,979.52
2017-12-30T09:42:35.069Z,979.39
2017-12-30T09:43:35.058Z,979.38
2017-12-30T09:44:35.047Z,979.55
2017-12-30T09:45:35.035Z,979.58
2017-12-30T09:46:35.025Z,979.55
2017-12-30T09:47:35.013Z,979.67
2017-12-30T09:48:35.005Z,979.60
2017-12-30T09:49:34.991Z,979.53
2017-12-30T09:50:34.985Z,979.58
2017-12-30T09:51:34.969Z,979.52
2017-12-30T09:52:34.962Z,979.63
2017-12-30T09:53:34.946Z,979.36
2017-12-30T09:54:34.936Z,979.41
2017-12-30T09:55:34.925Z,979.42
2017-12-30T09:56:34.916Z,979.52
2017-12-30T09:57:34.903Z,979.55
2017-12-30T09:58:34.893Z,979.54
2017-12-30T09:59:34.882Z,979.51
2017-12-30T10:00:34.871Z,979.47
2017-12-30T10:01:34.863Z,979.50
2017-12-30T10:02:34.848Z,979.48
2017-12-30T10:03:34.837Z,979.55
2017-12-30T10:04:34.828Z,979.61
2017-12-30T10:05:34.815Z,979.74
2017-12-30T10:06:34.806Z,979.69
2017-12-30T10:07:34.796Z,979.63
2017-12-30T10:08:34.787Z,979.53
2017-12-30T10:09:34.773Z,979.51
2017-12-30T10:10:34.773Z,979.63
2017-12-30T10:11:34.753Z,979.62
2017-12-30T10:12:34.742Z,979.74
2017-12-30T10:13:34.735Z,979.63
2017-12-30T10:14:34.721Z,979.80
2017-12-30T10:15:34.711Z,979.72
2017-12-30T10:16:34.701Z,979.69
2017-12-30T10:17:34.689Z,979.67
2017-12-30T10:18:34.678Z,979.63
2017-12-30T10:19:34.669Z,979.59
2017-12-30T10:20:34.658Z,979.67
2017-12-30T10:21:34.650Z,979.70
2017-12-30T10:22:34.636Z,979.67
2017-12-30T10:23:34.626Z,979.66
2017-12-30T10:24:34.617Z,979.55
2017-12-30T10:25:34.608Z,979.46
2017-12-30T10:26:34.594Z,979.62
2017-12-30T10:27:34.584Z,979.66
2017-12-30T10:28:34.574Z,979.64
2017-12-30T10:29:34.564Z,979.55
2017-12-30T10:30:34.554Z,979.59
2017-12-30T10:31:34.544Z,979.57
2017-12-30T10:32:34.537Z,979.64
2017-12-30T10:33:34.523Z,979.73
2017-12-30T10:34:34.513Z,979.71
2017-12-30T10:35:34.504Z,979.77
2017-12-30T10:36:34.493Z,979.85
2017-12-30T10:37:34.483Z,979.90
2017-12-30T10:38:34.473Z,979.95
2017-12-30T10:39:34.464Z,979.99
2017-12-30T10:40:34.454Z,980.05
2017-12-30T10:41:34.443Z,980.02
2017-12-30T10:42:34.433Z,979.97
2017-12-30T10:43:34.424Z,979.96
2017-12-30T10:44:34.414Z,979.99
2017-12-30T10:45:34.409Z,980.08
2017-12-30T10:46:34.395Z,980.03
2017-12-30T10:47:34.383Z,980.09
2017-12-30T10:48:34.375Z,980.10
2017-12-30T10:49:34.366Z,980.00
2017-12-30T10:50:34.356Z,980.00
2017-12-30T10:51:34.344Z,980.03
2017-12-30T10:52:34.337Z,979.99
2017-12-30T10:53:34.324Z,980.02
2017-12-30T10:54:34.314Z,980.10
2017-12-30T10:55:34.325Z,980.09
2017-12-30T10:56:34.296Z,980.09
2017-12-30T10:57:34.285Z,980.07
2017-12-30T10:58:34.275Z,980.11
2017-12-30T10:59:34.266Z,980.22
2017-12-30T11:00:34.259Z,980.27
2017-12-30T11:01:34.246Z,980.25
2017-12-30T11:02:34.236Z,980.26
2017-12-30T11:03:34.228Z,980.30
2017-12-30T11:04:34.218Z,980.38
2017-12-30T11:05:34.207Z,980.30
2017-12-30T11:06:34.197Z,980.36
2017-12-30T11:07:34.188Z,980.38
2017-12-30T11:08:34.179Z,980.27
2017-12-30T11:09:34.168Z,980.47
2017-12-30T11:10:34.159Z,980.41
2017-12-30T11:11:34.151Z,980.53
2017-12-30T11:12:34.140Z,980.58
2017-12-30T11:13:34.131Z,980.54
2017-12-30T11:14:34.122Z,980.66
2017-12-30T11:15:34.111Z,980.58
2017-12-30T11:16:34.102Z,980.63
2017-12-30T11:17:34.100Z,980.62
2017-12-30T11:18:34.084Z,980.66
2017-12-30T11:19:34.074Z,980.66
2017-12-30T11:20:34.065Z,980.75
2017-12-30T11:21:34.054Z,980.72
2017-12-30T11:22:34.046Z,980.66
2017-12-30T11:23:34.036Z,980.86
2017-12-30T11:24:34.027Z,980.80
2017-12-30T11:25:34.018Z,980.96
2017-12-30T11:26:34.016Z,980.92
2017-12-30T11:27:34.000Z,980.89
2017-12-30T11:28:33.991Z,980.99
2017-12-30T11:29:33.979Z,980.86
2017-12-30T11:30:33.970Z,980.73
2017-12-30T11:31:33.961Z,980.94
2017-12-30T11:32:33.952Z,980.84
2017-12-30T11:33:33.942Z,980.82
2017-12-30T11:34:33.942Z,980.85
2017-12-30T11:35:33.925Z,980.85
2017-12-30T11:36:33.915Z,980.81
2017-12-30T11:37:33.907Z,980.78
2017-12-30T11:38:33.897Z,980.76
2017-12-30T11:39:33.890Z,980.78
2017-12-30T11:40:33.879Z,980.81
2017-12-30T11:41:33.874Z,980.67
2017-12-30T11:42:33.860Z,980.69
2017-12-30T11:43:33.851Z,980.64
2017-12-30T11:44:33.841Z,980.67
2017-12-30T11:45:33.831Z,980.68
2017-12-30T11:46:33.823Z,980.63
2017-12-30T11:47:33.818Z,980.64
2017-12-30T11:48:33.805Z,980.79
2017-12-30T11:49:33.795Z,980.87
2017-12-30T11:50:33.785Z,980.80
2017-12-30T11:51:33.777Z,980.79
2017-12-30T11:52:33.768Z,980.68
2017-12-30T11:53:33.758Z,980.87
2017-12-30T11:54:33.749Z,980.82
2017-12-30T11:55:33.741Z,980.78
2017-12-30T11:56:33.738Z,980.81
2017-12-30T11:57:33.725Z,980.78
2017-12-30T11:58:33.713Z,980.70
2017-12-30T11:59:33.706Z,980.83
2017-12-30T12:00:33.696Z,980.94
2017-12-30T12:01:33.690Z,980.87
2017-12-30T12:02:33.678Z,980.77
2017-12-30T12:03:33.669Z,980.85
2017-12-30T12:04:33.660Z,980.80
2017-12-30T12:05:33.650Z,980.80
2017-12-30T12:06:33.642Z,980.89
2017-12-30T12:07:33.633Z,980.84
2017-12-30T12:08:33.624Z,981.04
2017-12-30T12:09:33.614Z,981.18
2017-12-30T12:10:33.606Z,981.04
2017-12-30T12:11:33.597Z,981.14
2017-12-30T12:12:33.588Z,981.18
2017-12-30T12:13:33.580Z,981.17
2017-12-30T12:14:33.571Z,981.27
2017-12-30T12:15:33.562Z,981.23
2017-12-30T12:16:33.553Z,981.31
2017-12-30T12:17:33.543Z,981.32
2017-12-30T12:18:33.537Z,981.39
2017-12-30T12:19:33.526Z,981.37
2017-12-30T12:20:33.516Z,981.45
2017-12-30T12:21:33.508Z,981.41
2017-12-30T12:22:33.500Z,981.43
2017-12-30T12:23:33.491Z,981.32
2017-12-30T12:24:33.482Z,981.43
2017-12-30T12:25:33.472Z,981.24
2017-12-30T12:26:33.464Z,981.27
2017-12-30T12:27:33.455Z,981.26
2017-12-30T12:28:33.446Z,981.31